Map

Track Data

SID SEASON NUMBER BASIN SUBBASIN NAME ISO_TIME NATURE LAT LON WMO_WIND WMO_PRES WMO_AGENCY TRACK_TYPE DIST2LAND LANDFALL IFLAG USA_AGENCY USA_ATCF_ID USA_LAT USA_LON USA_RECORD USA_STATUS USA_WIND USA_PRES USA_SSHS USA_R34_NE USA_R34_SE USA_R34_SW USA_R34_NW USA_R50_NE USA_R50_SE USA_R50_SW USA_R50_NW USA_R64_NE USA_R64_SE USA_R64_SW USA_R64_NW USA_POCI USA_ROCI USA_RMW USA_EYE TOKYO_LAT TOKYO_LON TOKYO_GRADE TOKYO_WIND TOKYO_PRES TOKYO_R50_DIR TOKYO_R50_LONG TOKYO_R50_SHORT TOKYO_R30_DIR TOKYO_R30_LONG TOKYO_R30_SHORT TOKYO_LAND CMA_LAT CMA_LON CMA_CAT CMA_WIND CMA_PRES HKO_LAT HKO_LON HKO_CAT HKO_WIND HKO_PRES NEWDELHI_LAT NEWDELHI_LON NEWDELHI_GRADE NEWDELHI_WIND NEWDELHI_PRES NEWDELHI_CI NEWDELHI_DP NEWDELHI_POCI REUNION_LAT REUNION_LON REUNION_TYPE REUNION_WIND REUNION_PRES REUNION_TNUM REUNION_CI REUNION_RMW REUNION_R34_NE REUNION_R34_SE REUNION_R34_SW REUNION_R34_NW REUNION_R50_NE REUNION_R50_SE REUNION_R50_SW REUNION_R50_NW REUNION_R64_NE REUNION_R64_SE REUNION_R64_SW REUNION_R64_NW BOM_LAT BOM_LON BOM_TYPE BOM_WIND BOM_PRES BOM_TNUM BOM_CI BOM_RMW BOM_R34_NE BOM_R34_SE BOM_R34_SW BOM_R34_NW BOM_R50_NE BOM_R50_SE BOM_R50_SW BOM_R50_NW BOM_R64_NE BOM_R64_SE BOM_R64_SW BOM_R64_NW BOM_ROCI BOM_POCI BOM_EYE BOM_POS_METHOD BOM_PRES_METHOD NADI_LAT NADI_LON NADI_CAT NADI_WIND NADI_PRES WELLINGTON_LAT WELLINGTON_LON WELLINGTON_WIND WELLINGTON_PRES DS824_LAT DS824_LON DS824_STAGE DS824_WIND DS824_PRES TD9636_LAT TD9636_LON TD9636_STAGE TD9636_WIND TD9636_PRES TD9635_LAT TD9635_LON TD9635_WIND TD9635_PRES TD9635_ROCI NEUMANN_LAT NEUMANN_LON NEUMANN_CLASS NEUMANN_WIND NEUMANN_PRES MLC_LAT MLC_LON MLC_CLASS MLC_WIND MLC_PRES USA_GUST BOM_GUST BOM_GUST_PER REUNION_GUST REUNION_GUST_PER USA_SEAHGT USA_SEARAD_NE USA_SEARAD_SE USA_SEARAD_SW USA_SEARAD_NW STORM_SPEED STORM_DIR
1973238N21088 1973 88 NI BB NOT_NAMED 1973-08-26 00:00:00 TS 21.0000 88.0000 main 70 56 O________OO___ jtwc_io IO081973 21.0000 88.0000 -1 21.0000 88.0000 TC 25 21.0000 88.0000 1 10 287
1973238N21088 1973 88 NI BB NOT_NAMED 1973-08-26 03:00:00 TS 21.1503 87.4847 main 45 10 P________PP___ IO081973 21.1504 87.4702 -1 21.1504 87.4702 TC 25 21.1500 87.5137 1 10 288
1973238N21088 1973 88 NI BB NOT_NAMED 1973-08-26 06:00:00 TS 21.2998 87.0205 main 10 0 O________OP___ jtwc_io IO081973 21.3000 87.0000 -1 21.3000 87.0000 TC 25 21.2994 87.0614 1 8 291
1973238N21088 1973 88 NI BB NOT_NAMED 1973-08-26 09:00:00 TS 21.4495 86.6528 main 0 0 P________PP___ IO081973 21.4499 86.6400 -1 21.4499 86.6400 TC 25 21.4489 86.6784 1 7 297
1973238N21088 1973 88 NI BB NOT_NAMED 1973-08-26 12:00:00 TS 21.6000 86.4000 main 0 0 O________OO___ jtwc_io IO081973 21.6000 86.4000 -1 21.6000 86.4000 TC 25 21.6000 86.4000 1 5 309
1973238N21088 1973 88 NI BB NOT_NAMED 1973-08-26 15:00:00 TS 21.7465 86.2617 main 0 0 P________PP___ IO081973 21.7424 86.2699 -1 21.7424 86.2699 TC 25 21.7548 86.2454 1 4 328
1973238N21088 1973 88 NI BB NOT_NAMED 1973-08-26 18:00:00 TS 21.9063 86.1896 main 0 0 O________OP___ jtwc_io IO081973 21.9000 86.2000 -1 21.9000 86.2000 TC 25 21.9190 86.1687 1 4 339
1973238N21088 1973 88 NI BB NOT_NAMED 1973-08-26 21:00:00 TS 22.0895 86.1175 main 0 0 P________PP___ IO081973 22.0849 86.1224 -1 22.0849 86.1224 TC 25 22.0987 86.1077 1 4 336
1973238N21088 1973 88 NI BB NOT_NAMED 1973-08-27 00:00:00 TS 22.3000 86.0000 main 0 0 O________OO___ jtwc_io IO081973 22.3000 86.0000 -1 22.3000 86.0000 TC 25 22.3000 86.0000 1 6 326
1973238N21088 1973 88 NI BB NOT_NAMED 1973-08-27 03:00:00 TS 22.5471 85.7898 main 0 0 P________PP___ IO081973 22.5425 85.7875 -1 22.5425 85.7875 TC 25 22.5565 85.7945 1 7 318
1973238N21088 1973 88 NI BB NOT_NAMED 1973-08-27 06:00:00 TS 22.8098 85.5094 main 0 0 O________OP___ jtwc_io IO081973 22.8000 85.5000 -1 22.8000 85.5000 TC 25 22.8293 85.5281 1 8 314
1973238N21088 1973 88 NI BB NOT_NAMED 1973-08-27 09:00:00 TS 23.0774 85.1909 main 0 0 P________PP___ IO081973 23.0723 85.1876 -1 23.0723 85.1876 TC 25 23.0875 85.1977 1 8 307
1973238N21088 1973 88 NI BB NOT_NAMED 1973-08-27 12:00:00 TS 23.3000 84.8000 main 0 0 O________OO___ jtwc_io IO081973 23.3000 84.8000 -1 23.3000 84.8000 TC 25 23.3000 84.8000 1 9 294
1973238N21088 1973 88 NI BB NOT_NAMED 1973-08-27 15:00:00 TS 23.4327 84.3290 main 0 0 P________PP___ IO081973 23.4300 84.3298 -1 23.4300 84.3298 TC 25 23.4381 84.3272 1 9 283
1973238N21088 1973 88 NI BB NOT_NAMED 1973-08-27 18:00:00 TS 23.5086 83.7982 main 0 0 O________OP___ jtwc_io IO081973 23.5000 83.8000 -1 23.5000 83.8000 TC 25 23.5259 83.7947 1 10 278
1973238N21088 1973 88 NI BB NOT_NAMED 1973-08-27 21:00:00 TS 23.5685 83.2466 main 0 0 P________PP___ IO081973 23.5650 83.2500 -1 23.5650 83.2500 TC 25 23.5756 83.2398 1 10 275
1973238N21088 1973 88 NI BB NOT_NAMED 1973-08-28 00:00:00 TS 23.6000 82.7000 main 0 0 O________OO___ jtwc_io IO081973 23.6000 82.7000 -1 23.6000 82.7000 TC 25 23.6000 82.7000 1 10 272
1973238N21088 1973 88 NI BB NOT_NAMED 1973-08-28 03:00:00 TS 23.6107 82.1821 main 0 0 P________PP___ IO081973 23.6074 82.1774 -1 23.6074 82.1774 TC 25 23.6174 82.1914 1 9 270
1973238N21088 1973 88 NI BB NOT_NAMED 1973-08-28 06:00:00 TS 23.6050 81.7031 main 0 0 O________OP___ jtwc_io IO081973 23.6000 81.7000 -1 23.6000 81.7000 TC 25 23.6150 81.7095 1 8 269
1973238N21088 1973 88 NI BB NOT_NAMED 1973-08-28 09:00:00 TS 23.6016 81.2659 main 0 0 P________PP___ IO081973 23.5999 81.2625 -1 23.5999 81.2625 TC 25 23.6051 81.2728 1 7 270
1973238N21088 1973 88 NI BB NOT_NAMED 1973-08-28 12:00:00 TS 23.6000 80.9000 main 0 0 O________OO___ jtwc_io IO081973 23.6000 80.9000 -1 23.6000 80.9000 TC 25 23.6000 80.9000 1 6 270
1973238N21088 1973 88 NI BB NOT_NAMED 1973-08-28 15:00:00 TS 23.5992 80.6195 main 0 0 P________PP___ IO081973 23.5924 80.6200 -1 23.5924 80.6200 TC 25 23.6129 80.6184 1 5 271
1973238N21088 1973 88 NI BB NOT_NAMED 1973-08-28 18:00:00 TS 23.6113 80.3991 main 0 0 O________OP___ jtwc_io IO081973 23.6000 80.4000 -1 23.6000 80.4000 TC 25 23.6339 80.3974 1 4 277
1973238N21088 1973 88 NI BB NOT_NAMED 1973-08-28 21:00:00 TS 23.6493 80.2009 main 0 0 P________PP___ IO081973 23.6424 80.2000 -1 23.6424 80.2000 TC 25 23.6631 80.2028 1 4 284
1973238N21088 1973 88 NI BB NOT_NAMED 1973-08-29 00:00:00 TS 23.7000 80.0000 main 0 0 O________OO___ jtwc_io IO081973 23.7000 80.0000 -1 23.7000 80.0000 TC 25 23.7000 80.0000 1 4 283
1973238N21088 1973 88 NI BB NOT_NAMED 1973-08-29 03:00:00 TS 23.7435 79.7564 main 0 0 P________PP___ IO081973 23.7500 79.7650 -1 23.7500 79.7650 TC 25 23.7306 79.7392 1 5 281
1973238N21088 1973 88 NI BB NOT_NAMED 1973-08-29 06:00:00 TS 23.7900 79.4882 main 0 0 O________OP___ jtwc_io IO081973 23.8000 79.5000 -1 23.8000 79.5000 TC 25 23.7700 79.4647 1 5 280
1973238N21088 1973 88 NI BB NOT_NAMED 1973-08-29 09:00:00 TS 23.8365 79.1943 main 0 0 P________PP___ IO081973 23.8425 79.2000 -1 23.8425 79.2000 TC 25 23.8243 79.1829 1 5 282
1973238N21088 1973 88 NI BB NOT_NAMED 1973-08-29 12:00:00 TS 23.9000 78.9000 main 0 0 O________OO___ jtwc_io IO081973 23.9000 78.9000 -1 23.9000 78.9000 TC 25 23.9000 78.9000 1 5 287
1973238N21088 1973 88 NI BB NOT_NAMED 1973-08-29 15:00:00 TS 23.9910 78.6403 main 0 0 P________PP___ IO081973 23.9849 78.6499 -1 23.9849 78.6499 TC 25 24.0033 78.6210 1 5 294
1973238N21088 1973 88 NI BB NOT_NAMED 1973-08-29 18:00:00 TS 24.1091 78.3809 main 0 0 O________OP___ jtwc_io IO081973 24.1000 78.4000 -1 24.1000 78.4000 TC 25 24.1274 78.3426 1 6 298
1973238N21088 1973 88 NI BB NOT_NAMED 1973-08-29 21:00:00 TS 24.2543 78.0893 main 0 0 P________PP___ IO081973 24.2500 78.1001 -1 24.2500 78.1001 TC 25 24.2627 78.0679 1 6 299
1973238N21088 1973 88 NI AS NOT_NAMED 1973-08-30 00:00:00 TS 24.4000 77.8000 main 0 0 O________OO___ jtwc_io IO081973 24.4000 77.8000 -1 24.4000 77.8000 TC 25 24.4000 77.8000 1 6 297
1973238N21088 1973 88 NI AS NOT_NAMED 1973-08-30 03:00:00 TS 24.5055 77.5397 main 0 0 P________PP___ IO081973 24.4999 77.5424 -1 24.4999 77.5424 TC 25 24.5168 77.5345 1 5 295
1973238N21088 1973 88 NI AS NOT_NAMED 1973-08-30 06:00:00 TS 24.6116 77.2924 main 0 0 O________OP___ jtwc_io IO081973 24.6000 77.3000 -1 24.6000 77.3000 TC 25 24.6349 77.2772 1 5 298
1973238N21088 1973 88 NI AS NOT_NAMED 1973-08-30 09:00:00 TS 24.7485 77.0388 main 0 0 P________PP___ IO081973 24.7425 77.0425 -1 24.7425 77.0425 TC 25 24.7606 77.0313 1 5 303
1973238N21088 1973 88 NI AS NOT_NAMED 1973-08-30 12:00:00 TS 24.9000 76.8000 main 0 0 O________OO___ jtwc_io IO081973 24.9000 76.8000 -1 24.9000 76.8000 TC 25 24.9000 76.8000 1 5 308
1973238N21088 1973 88 NI AS NOT_NAMED 1973-08-30 15:00:00 TS 25.0509 76.6103 main 0 0 P________PP___ IO081973 25.0424 76.5924 -1 25.0424 76.5924 TC 25 25.0677 76.6460 1 5 313
1973238N21088 1973 88 NI AS NOT_NAMED 1973-08-30 18:00:00 TS 25.2161 76.4322 main 0 0 O________OP___ jtwc_io IO081973 25.2000 76.4000 -1 25.2000 76.4000 TC 25 25.2483 76.4966 1 5 318
1973238N21088 1973 88 NI AS NOT_NAMED 1973-08-30 21:00:00 TS 25.4098 76.2579 main 0 0 P________PP___ IO081973 25.3998 76.2374 -1 25.3998 76.2374 TC 25 25.4298 76.2990 1 5 315
1973238N21088 1973 88 NI AS NOT_NAMED 1973-08-31 00:00:00 TS 25.6000 76.0000 main 0 0 O________OO___ jtwc_io IO081973 25.6000 76.0000 -1 25.6000 76.0000 TC 25 25.6000 76.0000 1 7 301
1973238N21088 1973 88 NI AS NOT_NAMED 1973-08-31 03:00:00 TS 25.7595 75.6038 main 0 0 P________PP___ IO081973 25.7647 75.6249 -1 25.7647 75.6249 TC 25 25.7491 75.5615 1 9 289
1973238N21088 1973 88 NI AS NOT_NAMED 1973-08-31 06:00:00 TS 25.8929 75.0688 main 0 0 O________OP___ jtwc_io IO081973 25.9000 75.1000 -1 25.9000 75.1000 TC 25 25.8788 75.0064 1 11 283
1973238N21088 1973 88 NI AS NOT_NAMED 1973-08-31 09:00:00 TS 26.0036 74.4161 main 0 0 P________PP___ IO081973 26.0084 74.4377 -1 26.0084 74.4377 TC 25 25.9940 74.3730 1 12 280
1973238N21088 1973 88 NI AS NOT_NAMED 1973-08-31 12:00:00 TS 26.1000 73.7000 main 0 O________OO___ jtwc_io IO081973 26.1000 73.7000 -1 26.1000 73.7000 TC 25 26.1000 73.7000 6 13 279

About IBTrACS Database

This database is a web-friendly format of International Best Track Archive for Climate Stewardship (IBTrACS), a global best track data archive curated by NOAA dating back to 1842.

Updated: 2021-11-26